sensor_id;sensor_type;location;lat;lon;timestamp;pressure;altitude;pressure_sealevel;temperature;humidity
41254;BME280;26987;59.928;30.306;2023-03-23T00:02:27;99652.88;;;5.17;100.00
41254;BME280;26987;59.928;30.306;2023-03-23T00:04:55;99655.53;;;5.24;100.00
41254;BME280;26987;59.928;30.306;2023-03-23T00:07:24;99639.97;;;5.21;100.00
41254;BME280;26987;59.928;30.306;2023-03-23T00:09:54;99628.09;;;5.10;100.00
41254;BME280;26987;59.928;30.306;2023-03-23T00:12:24;99636.31;;;5.22;100.00
41254;BME280;26987;59.928;30.306;2023-03-23T00:14:55;99649.03;;;5.27;100.00
41254;BME280;26987;59.928;30.306;2023-03-23T00:17:23;99635.72;;;5.27;100.00
41254;BME280;26987;59.928;30.306;2023-03-23T00:19:51;99634.91;;;5.26;100.00
41254;BME280;26987;59.928;30.306;2023-03-23T00:22:19;99621.56;;;5.20;100.00
41254;BME280;26987;59.928;30.306;2023-03-23T00:24:48;99627.75;;;5.27;100.00
41254;BME280;26987;59.928;30.306;2023-03-23T00:27:17;99605.19;;;5.09;100.00
41254;BME280;26987;59.928;30.306;2023-03-23T00:29:48;99598.69;;;5.18;100.00
41254;BME280;26987;59.928;30.306;2023-03-23T00:32:19;99607.28;;;5.21;100.00
41254;BME280;26987;59.928;30.306;2023-03-23T00:34:47;99597.88;;;5.18;100.00
41254;BME280;26987;59.928;30.306;2023-03-23T00:37:15;99613.00;;;5.24;100.00
41254;BME280;26987;59.928;30.306;2023-03-23T00:39:44;99618.13;;;5.26;100.00
41254;BME280;26987;59.928;30.306;2023-03-23T00:42:15;99566.94;;;5.03;100.00
41254;BME280;26987;59.928;30.306;2023-03-23T00:44:43;99606.50;;;5.27;100.00
41254;BME280;26987;59.928;30.306;2023-03-23T00:47:11;99605.91;;;5.32;100.00
41254;BME280;26987;59.928;30.306;2023-03-23T00:49:39;99597.09;;;5.31;100.00
41254;BME280;26987;59.928;30.306;2023-03-23T00:52:07;99595.06;;;5.33;100.00
41254;BME280;26987;59.928;30.306;2023-03-23T00:54:35;99590.94;;;5.30;100.00
41254;BME280;26987;59.928;30.306;2023-03-23T00:57:04;99588.09;;;5.32;100.00
41254;BME280;26987;59.928;30.306;2023-03-23T00:59:34;99593.41;;;5.32;100.00
41254;BME280;26987;59.928;30.306;2023-03-23T01:02:02;99579.13;;;5.33;100.00
41254;BME280;26987;59.928;30.306;2023-03-23T01:04:30;99566.03;;;5.32;100.00
41254;BME280;26987;59.928;30.306;2023-03-23T01:06:58;99564.16;;;5.32;100.00
41254;BME280;26987;59.928;30.306;2023-03-23T01:09:27;99574.59;;;5.34;100.00
41254;BME280;26987;59.928;30.306;2023-03-23T01:11:55;99566.81;;;5.32;100.00
41254;BME280;26987;59.928;30.306;2023-03-23T01:14:23;99540.66;;;5.29;100.00
41254;BME280;26987;59.928;30.306;2023-03-23T01:16:53;99534.53;;;5.35;100.00
41254;BME280;26987;59.928;30.306;2023-03-23T01:19:21;99537.78;;;5.30;100.00
41254;BME280;26987;59.928;30.306;2023-03-23T01:21:49;99522.84;;;5.23;100.00
41254;BME280;26987;59.928;30.306;2023-03-23T01:24:17;99519.38;;;5.22;100.00
41254;BME280;26987;59.928;30.306;2023-03-23T01:26:44;99527.16;;;5.24;100.00
41254;BME280;26987;59.928;30.306;2023-03-23T01:29:12;99525.31;;;5.17;100.00
41254;BME280;26987;59.928;30.306;2023-03-23T01:31:41;99526.13;;;5.18;100.00
41254;BME280;26987;59.928;30.306;2023-03-23T01:34:11;99525.09;;;5.19;100.00
41254;BME280;26987;59.928;30.306;2023-03-23T01:36:39;99515.69;;;5.16;100.00
41254;BME280;26987;59.928;30.306;2023-03-23T01:39:07;99519.59;;;5.21;100.00
41254;BME280;26987;59.928;30.306;2023-03-23T01:41:36;99507.09;;;5.21;100.00
41254;BME280;26987;59.928;30.306;2023-03-23T01:47:10;99504.88;;;5.25;100.00
41254;BME280;26987;59.928;30.306;2023-03-23T01:49:42;99513.66;;;5.32;100.00
41254;BME280;26987;59.928;30.306;2023-03-23T01:52:16;99502.22;;;5.32;100.00
41254;BME280;26987;59.928;30.306;2023-03-23T01:54:49;99491.59;;;5.32;100.00
41254;BME280;26987;59.928;30.306;2023-03-23T01:57:19;99479.13;;;5.25;100.00
41254;BME280;26987;59.928;30.306;2023-03-23T01:59:51;99475.63;;;5.25;100.00
41254;BME280;26987;59.928;30.306;2023-03-23T02:02:27;99484.81;;;5.29;100.00
41254;BME280;26987;59.928;30.306;2023-03-23T02:05:04;99491.59;;;5.38;100.00
41254;BME280;26987;59.928;30.306;2023-03-23T02:07:36;99461.13;;;5.34;100.00
41254;BME280;26987;59.928;30.306;2023-03-23T02:10:06;99474.81;;;5.31;100.00
41254;BME280;26987;59.928;30.306;2023-03-23T02:12:35;99468.06;;;5.35;100.00
41254;BME280;26987;59.928;30.306;2023-03-23T02:15:04;99441.91;;;5.25;100.00
41254;BME280;26987;59.928;30.306;2023-03-23T02:17:40;99457.88;;;5.39;100.00
41254;BME280;26987;59.928;30.306;2023-03-23T02:20:24;99452.13;;;5.42;100.00
41254;BME280;26987;59.928;30.306;2023-03-23T02:23:13;99450.28;;;5.42;100.00
41254;BME280;26987;59.928;30.306;2023-03-23T02:25:58;99444.56;;;5.52;100.00
41254;BME280;26987;59.928;30.306;2023-03-23T02:31:35;99432.91;;;5.47;100.00
41254;BME280;26987;59.928;30.306;2023-03-23T02:34:15;99423.50;;;5.37;100.00
41254;BME280;26987;59.928;30.306;2023-03-23T02:36:47;99424.72;;;5.35;100.00
41254;BME280;26987;59.928;30.306;2023-03-23T02:39:20;99395.47;;;5.21;100.00
41254;BME280;26987;59.928;30.306;2023-03-23T02:41:53;99421.25;;;5.41;100.00
41254;BME280;26987;59.928;30.306;2023-03-23T02:44:23;99379.31;;;5.23;100.00
41254;BME280;26987;59.928;30.306;2023-03-23T02:46:57;99405.28;;;5.41;100.00
41254;BME280;26987;59.928;30.306;2023-03-23T02:49:29;99413.88;;;5.43;100.00
41254;BME280;26987;59.928;30.306;2023-03-23T02:51:59;99395.88;;;5.38;100.00
41254;BME280;26987;59.928;30.306;2023-03-23T02:54:29;99404.09;;;5.43;100.00
41254;BME280;26987;59.928;30.306;2023-03-23T02:56:58;99409.81;;;5.40;100.00
41254;BME280;26987;59.928;30.306;2023-03-23T02:59:29;99376.25;;;5.39;100.00
41254;BME280;26987;59.928;30.306;2023-03-23T03:02:02;99394.88;;;5.46;100.00
41254;BME280;26987;59.928;30.306;2023-03-23T03:04:34;99387.72;;;5.47;100.00
41254;BME280;26987;59.928;30.306;2023-03-23T03:07:32;99392.19;;;5.53;100.00
41254;BME280;26987;59.928;30.306;2023-03-23T03:10:08;99334.75;;;5.25;100.00
41254;BME280;26987;59.928;30.306;2023-03-23T03:12:45;99373.19;;;5.49;100.00
41254;BME280;26987;59.928;30.306;2023-03-23T03:15:23;99359.88;;;5.42;100.00
41254;BME280;26987;59.928;30.306;2023-03-23T03:18:00;99369.28;;;5.52;100.00
41254;BME280;26987;59.928;30.306;2023-03-23T03:20:32;99364.78;;;5.46;100.00
41254;BME280;26987;59.928;30.306;2023-03-23T03:23:04;99343.13;;;5.35;100.00
41254;BME280;26987;59.928;30.306;2023-03-23T03:25:37;99344.16;;;5.48;100.00
41254;BME280;26987;59.928;30.306;2023-03-23T03:28:07;99353.16;;;5.47;100.00
41254;BME280;26987;59.928;30.306;2023-03-23T03:30:45;99346.81;;;5.48;100.00
41254;BME280;26987;59.928;30.306;2023-03-23T03:33:13;99341.69;;;5.46;100.00
41254;BME280;26987;59.928;30.306;2023-03-23T03:35:43;99336.38;;;5.46;100.00
41254;BME280;26987;59.928;30.306;2023-03-23T03:38:12;99333.72;;;5.46;100.00
41254;BME280;26987;59.928;30.306;2023-03-23T03:40:40;99328.59;;;5.45;100.00
41254;BME280;26987;59.928;30.306;2023-03-23T03:43:08;99332.91;;;5.46;100.00
41254;BME280;26987;59.928;30.306;2023-03-23T03:45:36;99322.25;;;5.46;100.00
41254;BME280;26987;59.928;30.306;2023-03-23T03:48:04;99317.75;;;5.46;100.00
41254;BME280;26987;59.928;30.306;2023-03-23T03:50:33;99316.16;;;5.45;100.00
41254;BME280;26987;59.928;30.306;2023-03-23T03:53:02;99289.38;;;5.33;100.00
41254;BME280;26987;59.928;30.306;2023-03-23T03:55:31;99315.28;;;5.51;100.00
41254;BME280;26987;59.928;30.306;2023-03-23T03:58:02;99312.41;;;5.53;100.00
41254;BME280;26987;59.928;30.306;2023-03-23T04:00:49;99316.94;;;5.52;100.00
41254;BME280;26987;59.928;30.306;2023-03-23T04:03:23;99300.16;;;5.52;100.00
41254;BME280;26987;59.928;30.306;2023-03-23T04:06:03;99299.75;;;5.55;100.00
41254;BME280;26987;59.928;30.306;2023-03-23T04:08:32;99312.00;;;5.56;100.00
41254;BME280;26987;59.928;30.306;2023-03-23T04:11:00;99268.09;;;5.40;100.00
41254;BME280;26987;59.928;30.306;2023-03-23T04:13:30;99285.41;;;5.56;100.00
41254;BME280;26987;59.928;30.306;2023-03-23T04:16:23;99294.38;;;5.62;100.00
41254;BME280;26987;59.928;30.306;2023-03-23T04:18:53;99294.38;;;5.62;100.00
41254;BME280;26987;59.928;30.306;2023-03-23T04:21:24;99291.16;;;5.60;100.00
41254;BME280;26987;59.928;30.306;2023-03-23T04:23:56;99280.09;;;5.56;100.00
41254;BME280;26987;59.928;30.306;2023-03-23T04:26:26;99285.81;;;5.60;100.00
41254;BME280;26987;59.928;30.306;2023-03-23T04:28:58;99285.00;;;5.66;100.00
41254;BME280;26987;59.928;30.306;2023-03-23T04:31:29;99297.03;;;5.68;100.00
41254;BME280;26987;59.928;30.306;2023-03-23T04:34:09;99274.16;;;5.67;100.00
41254;BME280;26987;59.928;30.306;2023-03-23T04:36:44;99279.25;;;5.69;100.00
41254;BME280;26987;59.928;30.306;2023-03-23T04:39:18;99277.16;;;5.78;100.00
41254;BME280;26987;59.928;30.306;2023-03-23T04:41:46;99284.13;;;5.79;100.00
41254;BME280;26987;59.928;30.306;2023-03-23T04:44:22;99278.59;;;5.80;100.00
41254;BME280;26987;59.928;30.306;2023-03-23T04:47:01;99270.81;;;5.86;100.00
41254;BME280;26987;59.928;30.306;2023-03-23T04:49:34;99274.25;;;5.86;100.00
41254;BME280;26987;59.928;30.306;2023-03-23T04:52:31;99269.34;;;5.90;100.00
41254;BME280;26987;59.928;30.306;2023-03-23T04:55:06;99274.25;;;5.93;100.00
41254;BME280;26987;59.928;30.306;2023-03-23T04:57:36;99272.59;;;5.92;100.00
41254;BME280;26987;59.928;30.306;2023-03-23T05:00:42;99269.69;;;6.07;100.00
41254;BME280;26987;59.928;30.306;2023-03-23T05:03:17;99253.38;;;5.90;100.00
41254;BME280;26987;59.928;30.306;2023-03-23T05:05:46;99267.66;;;6.02;100.00
41254;BME280;26987;59.928;30.306;2023-03-23T05:08:19;99259.88;;;6.01;100.00
41254;BME280;26987;59.928;30.306;2023-03-23T05:10:53;99273.38;;;6.06;100.00
41254;BME280;26987;59.928;30.306;2023-03-23T05:13:25;99283.41;;;6.04;100.00
41254;BME280;26987;59.928;30.306;2023-03-23T05:15:55;99295.50;;;6.07;100.00
41254;BME280;26987;59.928;30.306;2023-03-23T05:18:23;99248.06;;;5.83;100.00
41254;BME280;26987;59.928;30.306;2023-03-23T05:20:52;99285.66;;;6.07;100.00
41254;BME280;26987;59.928;30.306;2023-03-23T05:23:22;99269.69;;;6.07;100.00
41254;BME280;26987;59.928;30.306;2023-03-23T05:25:58;99271.72;;;6.12;100.00
41254;BME280;26987;59.928;30.306;2023-03-23T05:28:29;99260.47;;;6.10;100.00
41254;BME280;26987;59.928;30.306;2023-03-23T05:31:08;99273.56;;;6.11;100.00
41254;BME280;26987;59.928;30.306;2023-03-23T05:33:36;99266.38;;;6.12;100.00
41254;BME280;26987;59.928;30.306;2023-03-23T05:36:18;99261.69;;;6.07;100.00
41254;BME280;26987;59.928;30.306;2023-03-23T05:39:15;99234.13;;;5.95;100.00
41254;BME280;26987;59.928;30.306;2023-03-23T05:42:03;99242.88;;;6.02;100.00
41254;BME280;26987;59.928;30.306;2023-03-23T05:44:58;99282.28;;;6.25;100.00
41254;BME280;26987;59.928;30.306;2023-03-23T05:47:27;99280.84;;;6.29;100.00
41254;BME280;26987;59.928;30.306;2023-03-23T05:49:59;99287.56;;;6.32;100.00
41254;BME280;26987;59.928;30.306;2023-03-23T05:52:29;99291.66;;;6.35;100.00
41254;BME280;26987;59.928;30.306;2023-03-23T05:55:00;99286.31;;;6.35;100.00
41254;BME280;26987;59.928;30.306;2023-03-23T05:57:31;99302.69;;;6.38;100.00
41254;BME280;26987;59.928;30.306;2023-03-23T06:00:08;99287.19;;;6.28;100.00
41254;BME280;26987;59.928;30.306;2023-03-23T06:02:48;99307.81;;;6.40;100.00
41254;BME280;26987;59.928;30.306;2023-03-23T06:05:26;99308.81;;;6.39;100.00
41254;BME280;26987;59.928;30.306;2023-03-23T06:07:56;99317.63;;;6.39;100.00
41254;BME280;26987;59.928;30.306;2023-03-23T06:10:24;99306.97;;;6.39;100.00
41254;BME280;26987;59.928;30.306;2023-03-23T06:13:00;99310.50;;;6.33;100.00
41254;BME280;26987;59.928;30.306;2023-03-23T06:15:58;99297.03;;;6.21;100.00
41254;BME280;26987;59.928;30.306;2023-03-23T06:18:39;99334.16;;;6.48;100.00
41254;BME280;26987;59.928;30.306;2023-03-23T06:21:37;99339.28;;;6.50;100.00
41254;BME280;26987;59.928;30.306;2023-03-23T06:24:25;99343.13;;;6.54;100.00
41254;BME280;26987;59.928;30.306;2023-03-23T06:26:52;99334.94;;;6.55;100.00
41254;BME280;26987;59.928;30.306;2023-03-23T06:29:23;99347.19;;;6.63;100.00
41254;BME280;26987;59.928;30.306;2023-03-23T06:31:58;99341.84;;;6.63;100.00
41254;BME280;26987;59.928;30.306;2023-03-23T06:34:28;99345.91;;;6.73;100.00
41254;BME280;26987;59.928;30.306;2023-03-23T06:36:59;99319.81;;;6.49;100.00
41254;BME280;26987;59.928;30.306;2023-03-23T06:39:39;99350.81;;;6.76;100.00
41254;BME280;26987;59.928;30.306;2023-03-23T06:42:19;99355.69;;;6.79;100.00
41254;BME280;26987;59.928;30.306;2023-03-23T06:44:54;99358.69;;;6.89;100.00
41254;BME280;26987;59.928;30.306;2023-03-23T06:47:24;99354.75;;;6.99;100.00
41254;BME280;26987;59.928;30.306;2023-03-23T06:49:52;99362.63;;;7.12;100.00
41254;BME280;26987;59.928;30.306;2023-03-23T06:52:25;99256.69;;;6.56;100.00
41254;BME280;26987;59.928;30.306;2023-03-23T06:54:53;99369.47;;;7.27;100.00
41254;BME280;26987;59.928;30.306;2023-03-23T06:57:22;99364.75;;;7.29;100.00
41254;BME280;26987;59.928;30.306;2023-03-23T06:59:52;99379.81;;;7.42;100.00
41254;BME280;26987;59.928;30.306;2023-03-23T07:02:23;99378.72;;;7.50;100.00
41254;BME280;26987;59.928;30.306;2023-03-23T07:04:53;99380.66;;;7.61;100.00
41254;BME280;26987;59.928;30.306;2023-03-23T07:07:23;99378.16;;;7.66;100.00
41254;BME280;26987;59.928;30.306;2023-03-23T07:10:05;99380.94;;;7.72;100.00
41254;BME280;26987;59.928;30.306;2023-03-23T07:12:35;99364.78;;;7.48;100.00
41254;BME280;26987;59.928;30.306;2023-03-23T07:15:06;99400.50;;;7.65;100.00
41254;BME280;26987;59.928;30.306;2023-03-23T07:17:39;99400.16;;;7.80;100.00
41254;BME280;26987;59.928;30.306;2023-03-23T07:20:20;99404.84;;;7.85;100.00
41254;BME280;26987;59.928;30.306;2023-03-23T07:22:48;99395.06;;;7.98;100.00
41254;BME280;26987;59.928;30.306;2023-03-23T07:25:37;99402.19;;;8.04;100.00
41254;BME280;26987;59.928;30.306;2023-03-23T07:28:07;99408.59;;;8.15;100.00
41254;BME280;26987;59.928;30.306;2023-03-23T07:30:35;99408.81;;;8.32;99.68
41254;BME280;26987;59.928;30.306;2023-03-23T07:33:06;99413.56;;;8.49;98.77
41254;BME280;26987;59.928;30.306;2023-03-23T07:35:35;99410.00;;;8.55;98.40
41254;BME280;26987;59.928;30.306;2023-03-23T07:38:09;99417.25;;;8.66;97.00
41254;BME280;26987;59.928;30.306;2023-03-23T07:40:38;99412.59;;;8.62;96.04
41254;BME280;26987;59.928;30.306;2023-03-23T07:43:15;99376.94;;;8.37;95.47
41254;BME280;26987;59.928;30.306;2023-03-23T07:46:05;99374.00;;;8.27;94.90
41254;BME280;26987;59.928;30.306;2023-03-23T07:48:46;99418.91;;;8.49;94.75
41254;BME280;26987;59.928;30.306;2023-03-23T07:51:15;99415.19;;;8.50;94.73
41254;BME280;26987;59.928;30.306;2023-03-23T07:53:47;99402.16;;;8.41;93.74
41254;BME280;26987;59.928;30.306;2023-03-23T07:56:36;99429.66;;;8.61;92.87
41254;BME280;26987;59.928;30.306;2023-03-23T07:59:15;99421.47;;;8.74;91.78
41254;BME280;26987;59.928;30.306;2023-03-23T08:01:44;99434.97;;;8.79;91.18
41254;BME280;26987;59.928;30.306;2023-03-23T08:04:30;99423.31;;;8.74;90.48
41254;BME280;26987;59.928;30.306;2023-03-23T08:07:18;99432.94;;;8.63;90.47
41254;BME280;26987;59.928;30.306;2023-03-23T08:10:00;99431.28;;;8.62;90.34
41254;BME280;26987;59.928;30.306;2023-03-23T08:12:31;99425.28;;;8.66;89.69
41254;BME280;26987;59.928;30.306;2023-03-23T08:15:14;99424.47;;;8.66;89.30
41254;BME280;26987;59.928;30.306;2023-03-23T08:18:02;99423.03;;;8.63;88.75
41254;BME280;26987;59.928;30.306;2023-03-23T08:20:50;99418.91;;;8.67;87.98
41254;BME280;26987;59.928;30.306;2023-03-23T08:23:39;99429.19;;;8.82;87.23
41254;BME280;26987;59.928;30.306;2023-03-23T08:26:28;99429.63;;;8.79;86.09
41254;BME280;26987;59.928;30.306;2023-03-23T08:29:25;99429.88;;;8.78;86.83
41254;BME280;26987;59.928;30.306;2023-03-23T08:32:11;99422.88;;;8.77;85.95
41254;BME280;26987;59.928;30.306;2023-03-23T08:34:39;99421.69;;;8.73;85.71
41254;BME280;26987;59.928;30.306;2023-03-23T08:37:33;99397.81;;;8.59;85.92
41254;BME280;26987;59.928;30.306;2023-03-23T08:40:14;99414.97;;;8.70;85.35
41254;BME280;26987;59.928;30.306;2023-03-23T08:43:04;99423.59;;;8.84;85.09
41254;BME280;26987;59.928;30.306;2023-03-23T08:45:34;99410.47;;;8.82;84.61
41254;BME280;26987;59.928;30.306;2023-03-23T08:48:14;99422.13;;;9.00;84.44
41254;BME280;26987;59.928;30.306;2023-03-23T08:51:21;99419.03;;;9.15;83.61
41254;BME280;26987;59.928;30.306;2023-03-23T08:54:10;99418.81;;;9.29;82.80
41254;BME280;26987;59.928;30.306;2023-03-23T08:56:43;99419.16;;;9.32;81.94
41254;BME280;26987;59.928;30.306;2023-03-23T08:59:37;99431.50;;;9.33;80.92
41254;BME280;26987;59.928;30.306;2023-03-23T09:02:34;99421.13;;;9.25;80.03
41254;BME280;26987;59.928;30.306;2023-03-23T09:05:14;99383.66;;;9.01;78.49
41254;BME280;26987;59.928;30.306;2023-03-23T09:08:08;99426.97;;;9.34;77.73
41254;BME280;26987;59.928;30.306;2023-03-23T09:10:38;99430.94;;;9.43;77.41
41254;BME280;26987;59.928;30.306;2023-03-23T09:13:06;99430.94;;;9.43;77.24
41254;BME280;26987;59.928;30.306;2023-03-23T09:15:34;99432.78;;;9.55;76.74
41254;BME280;26987;59.928;30.306;2023-03-23T09:18:03;99424.06;;;9.71;76.73
41254;BME280;26987;59.928;30.306;2023-03-23T09:20:31;99432.22;;;9.89;75.76
41254;BME280;26987;59.928;30.306;2023-03-23T09:22:58;99427.19;;;10.04;75.31
41254;BME280;26987;59.928;30.306;2023-03-23T09:25:27;99412.09;;;9.86;74.70
41254;BME280;26987;59.928;30.306;2023-03-23T09:27:58;99427.75;;;10.06;74.84
41254;BME280;26987;59.928;30.306;2023-03-23T09:30:27;99422.75;;;10.10;74.52
41254;BME280;26987;59.928;30.306;2023-03-23T09:32:56;99418.72;;;9.95;74.91
41254;BME280;26987;59.928;30.306;2023-03-23T09:35:27;99420.81;;;9.93;74.52
41254;BME280;26987;59.928;30.306;2023-03-23T09:37:55;99413.91;;;9.97;74.48
41254;BME280;26987;59.928;30.306;2023-03-23T09:40:25;99409.50;;;9.91;75.39
41254;BME280;26987;59.928;30.306;2023-03-23T09:43:17;99378.06;;;9.87;75.52
41254;BME280;26987;59.928;30.306;2023-03-23T09:45:53;99411.63;;;9.89;74.65
41254;BME280;26987;59.928;30.306;2023-03-23T09:48:35;99407.31;;;9.76;75.05
41254;BME280;26987;59.928;30.306;2023-03-23T09:51:14;99414.84;;;9.91;74.06
41254;BME280;26987;59.928;30.306;2023-03-23T09:53:47;99411.25;;;9.97;73.46
41254;BME280;26987;59.928;30.306;2023-03-23T09:56:16;99410.91;;;10.06;72.67
41254;BME280;26987;59.928;30.306;2023-03-23T09:58:51;99421.19;;;10.26;72.18
41254;BME280;26987;59.928;30.306;2023-03-23T10:01:23;99422.69;;;10.34;70.79
41254;BME280;26987;59.928;30.306;2023-03-23T10:03:58;99409.66;;;10.50;70.78
41254;BME280;26987;59.928;30.306;2023-03-23T10:06:29;99409.78;;;10.72;69.86
41254;BME280;26987;59.928;30.306;2023-03-23T10:08:57;99412.41;;;10.84;69.44
41254;BME280;26987;59.928;30.306;2023-03-23T10:11:31;99403.81;;;10.99;69.69
41254;BME280;26987;59.928;30.306;2023-03-23T10:14:14;99416.09;;;11.12;69.36
41254;BME280;26987;59.928;30.306;2023-03-23T10:16:54;99419.16;;;10.87;69.47
41254;BME280;26987;59.928;30.306;2023-03-23T10:19:28;99409.44;;;10.68;69.64
41254;BME280;26987;59.928;30.306;2023-03-23T10:22:02;99410.88;;;10.59;69.45
41254;BME280;26987;59.928;30.306;2023-03-23T10:24:35;99413.47;;;10.54;69.18
41254;BME280;26987;59.928;30.306;2023-03-23T10:27:11;99404.03;;;10.39;69.83
41254;BME280;26987;59.928;30.306;2023-03-23T10:29:46;99361.22;;;10.27;69.29
41254;BME280;26987;59.928;30.306;2023-03-23T10:32:19;99399.44;;;10.64;68.40
41254;BME280;26987;59.928;30.306;2023-03-23T10:34:52;99393.03;;;10.65;68.04
41254;BME280;26987;59.928;30.306;2023-03-23T10:37:23;99403.00;;;10.69;68.11
41254;BME280;26987;59.928;30.306;2023-03-23T10:39:54;99405.38;;;10.83;67.70
41254;BME280;26987;59.928;30.306;2023-03-23T10:42:24;99402.94;;;10.81;67.35
41254;BME280;26987;59.928;30.306;2023-03-23T10:44:55;99410.19;;;10.81;67.76
41254;BME280;26987;59.928;30.306;2023-03-23T10:47:23;99405.91;;;10.80;67.10
41254;BME280;26987;59.928;30.306;2023-03-23T10:49:54;99371.53;;;10.47;67.42
41254;BME280;26987;59.928;30.306;2023-03-23T10:52:29;99412.16;;;10.56;68.09
41254;BME280;26987;59.928;30.306;2023-03-23T10:55:03;99383.94;;;10.25;68.50
41254;BME280;26987;59.928;30.306;2023-03-23T10:57:33;99409.66;;;10.26;68.90
41254;BME280;26987;59.928;30.306;2023-03-23T11:00:05;99400.00;;;10.25;69.35
41254;BME280;26987;59.928;30.306;2023-03-23T11:02:39;99407.94;;;10.31;69.21
41254;BME280;26987;59.928;30.306;2023-03-23T11:05:16;99357.31;;;10.18;69.15
41254;BME280;26987;59.928;30.306;2023-03-23T11:07:53;99405.56;;;10.47;69.32
41254;BME280;26987;59.928;30.306;2023-03-23T11:10:23;99399.41;;;10.46;68.27
41254;BME280;26987;59.928;30.306;2023-03-23T11:12:52;99399.00;;;10.55;67.96
41254;BME280;26987;59.928;30.306;2023-03-23T11:15:29;99398.06;;;10.61;68.07
41254;BME280;26987;59.928;30.306;2023-03-23T11:17:59;99336.34;;;10.15;67.62
41254;BME280;26987;59.928;30.306;2023-03-23T11:20:29;99379.34;;;10.37;67.50
41254;BME280;26987;59.928;30.306;2023-03-23T11:22:57;99407.88;;;10.43;67.31
41254;BME280;26987;59.928;30.306;2023-03-23T11:25:25;99395.25;;;10.27;67.88
41254;BME280;26987;59.928;30.306;2023-03-23T11:27:54;99397.25;;;10.19;68.13
41254;BME280;26987;59.928;30.306;2023-03-23T11:30:26;99406.22;;;10.13;68.23
41254;BME280;26987;59.928;30.306;2023-03-23T11:33:00;99406.34;;;10.06;68.48
41254;BME280;26987;59.928;30.306;2023-03-23T11:35:29;99407.50;;;9.99;68.54
41254;BME280;26987;59.928;30.306;2023-03-23T11:37:58;99392.19;;;9.94;69.03
41254;BME280;26987;59.928;30.306;2023-03-23T11:40:29;99396.31;;;10.02;68.60
41254;BME280;26987;59.928;30.306;2023-03-23T11:43:00;99394.47;;;10.02;68.23
41254;BME280;26987;59.928;30.306;2023-03-23T11:45:34;99389.25;;;10.07;68.82
41254;BME280;26987;59.928;30.306;2023-03-23T11:48:15;99389.25;;;10.07;69.03
41254;BME280;26987;59.928;30.306;2023-03-23T11:50:51;99368.31;;;9.92;68.51
41254;BME280;26987;59.928;30.306;2023-03-23T11:53:27;99390.97;;;10.02;69.08
41254;BME280;26987;59.928;30.306;2023-03-23T11:56:07;99387.72;;;10.00;69.09
41254;BME280;26987;59.928;30.306;2023-03-23T11:58:37;99393.66;;;9.90;69.27
41254;BME280;26987;59.928;30.306;2023-03-23T12:01:15;99380.66;;;9.81;69.75
41254;BME280;26987;59.928;30.306;2023-03-23T12:03:57;99396.03;;;9.86;69.46
41254;BME280;26987;59.928;30.306;2023-03-23T12:06:35;99388.94;;;9.80;69.85
41254;BME280;26987;59.928;30.306;2023-03-23T12:09:11;99383.44;;;9.75;69.83
41254;BME280;26987;59.928;30.306;2023-03-23T12:11:55;99382.41;;;9.76;70.17
41254;BME280;26987;59.928;30.306;2023-03-23T12:14:30;99362.41;;;9.54;69.88
41254;BME280;26987;59.928;30.306;2023-03-23T12:17:14;99389.88;;;9.62;70.25
41254;BME280;26987;59.928;30.306;2023-03-23T12:19:50;99360.31;;;9.44;69.80
41254;BME280;26987;59.928;30.306;2023-03-23T12:22:32;99387.28;;;9.55;70.00
41254;BME280;26987;59.928;30.306;2023-03-23T12:25:18;99380.47;;;9.47;70.07
41254;BME280;26987;59.928;30.306;2023-03-23T12:27:54;99378.94;;;9.39;70.54
41254;BME280;26987;59.928;30.306;2023-03-23T12:30:31;99382.31;;;9.46;69.75
41254;BME280;26987;59.928;30.306;2023-03-23T12:33:13;99392.53;;;9.50;70.13
41254;BME280;26987;59.928;30.306;2023-03-23T12:35:54;99396.59;;;9.40;69.93
41254;BME280;26987;59.928;30.306;2023-03-23T12:38:43;99384.53;;;9.38;70.29
41254;BME280;26987;59.928;30.306;2023-03-23T12:41:16;99394.97;;;9.27;69.98
41254;BME280;26987;59.928;30.306;2023-03-23T12:43:51;99379.16;;;9.14;70.28
41254;BME280;26987;59.928;30.306;2023-03-23T12:46:42;99391.25;;;9.28;70.52
41254;BME280;26987;59.928;30.306;2023-03-23T12:49:20;99401.63;;;9.37;70.35
41254;BME280;26987;59.928;30.306;2023-03-23T12:51:52;99398.72;;;9.38;70.25
41254;BME280;26987;59.928;30.306;2023-03-23T12:54:27;99401.28;;;9.45;69.98
41254;BME280;26987;59.928;30.306;2023-03-23T12:57:01;99407.09;;;9.54;69.53
41254;BME280;26987;59.928;30.306;2023-03-23T12:59:36;99394.16;;;9.63;68.98
41254;BME280;26987;59.928;30.306;2023-03-23T13:02:13;99403.72;;;9.70;68.29
41254;BME280;26987;59.928;30.306;2023-03-23T13:04:49;99388.34;;;9.66;67.81
41254;BME280;26987;59.928;30.306;2023-03-23T13:07:21;99400.22;;;9.82;67.30
41254;BME280;26987;59.928;30.306;2023-03-23T13:09:55;99406.97;;;9.84;67.52
41254;BME280;26987;59.928;30.306;2023-03-23T13:12:24;99400.31;;;9.87;66.29
41254;BME280;26987;59.928;30.306;2023-03-23T13:15:03;99403.22;;;9.97;66.20
41254;BME280;26987;59.928;30.306;2023-03-23T13:17:41;99402.16;;;9.99;65.62
41254;BME280;26987;59.928;30.306;2023-03-23T13:23:12;99398.69;;;9.98;65.75
41254;BME280;26987;59.928;30.306;2023-03-23T13:25:49;99389.50;;;9.94;65.51
41254;BME280;26987;59.928;30.306;2023-03-23T13:28:19;99398.44;;;10.00;64.80
41254;BME280;26987;59.928;30.306;2023-03-23T13:31:00;99406.09;;;10.08;64.95
41254;BME280;26987;59.928;30.306;2023-03-23T13:33:30;99402.16;;;9.99;64.09
41254;BME280;26987;59.928;30.306;2023-03-23T13:36:05;99403.81;;;10.00;64.29
41254;BME280;26987;59.928;30.306;2023-03-23T13:38:36;99396.72;;;9.81;63.66
41254;BME280;26987;59.928;30.306;2023-03-23T13:41:09;99392.19;;;9.82;64.04